MET5691 - Baltimore to Boston

Embraer ERJ-170LR
N920AU
1 hr 15 mins
321 nm
Scheduled - Daily

Bid/PiRep Status

Bid was submitted on Jan 02 2017.

PiRep # 74602: Approved by Sean Doyle on January 4th, 2017 23:10 UTC

Departure

Departing from
Baltimore (BWI)
Departure gate
Scheduled Departure
GMT 1410
Local 0910
METAR KBWI 222354Z 00000KT 10SM FEW080 SCT140 BKN250 11/08 A2991 RMK AO2 SLP128 T01060078 10167 20106 53002
TAF KBWI 222320Z 2300/2406 18004KT P6SM BKN130 FM230600 20004KT 4SM BR BKN015 FM231100 VRB03KT 2SM BR BKN015 FM231300 21004KT 4SM BR BKN015 FM231400 21004KT P6SM BKN060 FM231700 21006KT P6SM SCT050 FM232300 19007KT P6SM BKN050 FM240500 19004KT P6SM SCT050
  • No charts available

Arrival

Arriving at
Boston (BOS)
Arrival gate
Scheduled Arrival
GMT 1525
Local 1025
METAR KBOS 222254Z 06007KT 10SM FEW080 FEW250 06/03 A2990 RMK AO2 SLP125 T00610028
TAF KBOS 222119Z 2221/2324 09007KT P6SM SCT250 FM230100 15004KT P6SM SCT250 FM230200 22004KT P6SM SCT250 FM230600 22004KT P6SM SCT010 BKN045 FM231400 21010KT P6SM FEW040 SCT250

Route Map

Planning Resources

PALEO3,HTO,WOONS1
OOD J42 RBV J222 JFK
SWANN3 DQO DAVYS J42 LAURN J222 JFK J225 NEWES INNDY2 CCC TELLE KENEE WOBUR EMMEL FIX 17
DCT SWANN DCT OOD J42 RBV J222 JFK KRANN3
ODD DAVYS BRAND RBV LAURN SANTT PACER HFD PUT
Route:
OFP Layout:
Units:
Detailed Navlog:
ETOPS Planning:
Plan Stepclimbs:
Runway Analysis:
Include NOTAMS:
FIR NOTAMS:
Flight Maps:

Return Flights

MET764
Airbus A321-232
2200 GMT
MET5690
Embraer ERJ-170LR
0222 GMT
MET5692
Embraer ERJ-170LR
1555 GMT
MET5764
Embraer ERJ-170LR
1235 GMT

Popularity

Hub Current Bids PiReps this month Total PiReps
KMCI 0 0 6
KLAX 0 0 2
KBOS 0 0 1